createdAt,value
2022-09-23T00:02:06.975Z,92.50
2022-09-23T00:12:11.189Z,92.60
2022-09-23T00:22:13.906Z,93.20
2022-09-23T00:32:15.557Z,93.00
2022-09-23T00:42:23.143Z,93.10
2022-09-23T00:52:25.103Z,93.40
2022-09-23T01:02:28.171Z,93.50
2022-09-23T01:12:59.692Z,93.60
2022-09-23T01:23:33.132Z,93.60
2022-09-23T01:33:43.918Z,93.60
2022-09-23T01:44:05.416Z,93.80
2022-09-23T01:54:22.457Z,93.50
2022-09-23T02:04:48.033Z,93.70
2022-09-23T02:14:57.312Z,93.80
2022-09-23T02:24:59.386Z,93.90
2022-09-23T02:35:14.223Z,93.90
2022-09-23T02:45:16.476Z,93.70
2022-09-23T02:55:23.372Z,94.00
2022-09-23T03:05:30.222Z,93.90
2022-09-23T03:15:43.417Z,93.80
2022-09-23T03:25:48.447Z,93.90
2022-09-23T03:36:16.749Z,93.90
2022-09-23T03:46:18.576Z,93.90
2022-09-23T03:56:20.192Z,93.90
2022-09-23T04:06:25.193Z,94.10
2022-09-23T04:16:27.228Z,94.00
2022-09-23T04:26:29.692Z,94.10
2022-09-23T04:36:31.353Z,94.20
2022-09-23T04:46:33.471Z,94.50
2022-09-23T04:56:35.363Z,94.60
2022-09-23T05:06:37.390Z,94.20
2022-09-23T05:16:39.349Z,94.30
2022-09-23T05:26:41.579Z,94.60
2022-09-23T05:36:43.597Z,94.40
2022-09-23T05:46:45.390Z,94.60
2022-09-23T05:56:47.533Z,94.70
2022-09-23T06:06:49.177Z,94.80
2022-09-23T06:16:50.762Z,94.80
2022-09-23T06:26:52.355Z,95.20
2022-09-23T06:36:55.522Z,95.60
2022-09-23T06:46:57.177Z,95.40
2022-09-23T06:56:59.025Z,95.50
2022-09-23T07:07:00.736Z,95.60
2022-09-23T07:17:03.632Z,96.00
2022-09-23T07:27:05.385Z,95.90
2022-09-23T07:37:06.996Z,96.40
2022-09-23T07:47:08.631Z,96.20
2022-09-23T07:57:10.232Z,96.40
2022-09-23T08:07:13.184Z,96.00
2022-09-23T08:17:14.904Z,95.50
2022-09-23T08:27:16.553Z,95.50
2022-09-23T08:37:18.175Z,95.60
2022-09-23T08:47:54.619Z,95.10
2022-09-23T08:58:23.817Z,95.00
2022-09-23T09:08:29.772Z,94.80
2022-09-23T09:18:33.970Z,94.10
2022-09-23T09:28:41.688Z,93.80
2022-09-23T09:38:43.363Z,93.80
2022-09-23T09:48:54.728Z,92.80
2022-09-23T09:59:02.102Z,92.70
2022-09-23T10:09:11.669Z,92.10
2022-09-23T10:19:15.783Z,91.50
2022-09-23T10:29:25.952Z,90.40
2022-09-23T10:39:47.003Z,90.30
2022-09-23T10:50:09.899Z,88.80
2022-09-23T11:00:17.524Z,88.00
2022-09-23T11:11:01.954Z,86.40
2022-09-23T11:21:35.478Z,86.90
2022-09-23T11:32:15.675Z,82.40
2022-09-23T11:42:24.205Z,80.30
2022-09-23T11:52:30.129Z,80.50
2022-09-23T12:03:06.133Z,77.40
2022-09-23T12:13:21.371Z,73.20
2022-09-23T12:24:03.169Z,72.90
2022-09-23T12:34:21.216Z,68.30
2022-09-23T12:44:23.271Z,67.60
2022-09-23T12:54:25.032Z,64.80
2022-09-23T13:05:01.562Z,64.70
2022-09-23T13:15:12.454Z,63.80
2022-09-23T13:25:22.140Z,63.30
2022-09-23T13:35:41.801Z,63.20
2022-09-23T13:45:44.133Z,63.00
2022-09-23T13:55:51.670Z,62.80
2022-09-23T14:05:59.381Z,62.20
2022-09-23T14:16:04.128Z,61.60
2022-09-23T14:26:05.858Z,62.30
2022-09-23T14:36:38.223Z,61.30
2022-09-23T14:46:56.534Z,61.50
2022-09-23T14:56:59.072Z,61.90
2022-09-23T15:07:07.654Z,61.80
2022-09-23T15:17:22.429Z,61.30
2022-09-23T15:27:32.953Z,62.20
2022-09-23T15:37:36.507Z,62.40
2022-09-23T15:47:38.183Z,62.50
2022-09-23T15:57:39.829Z,62.90
2022-09-23T16:07:41.457Z,62.70
2022-09-23T16:17:44.738Z,63.40
2022-09-23T16:27:46.773Z,64.30
2022-09-23T16:37:48.738Z,65.90
2022-09-23T16:47:51.830Z,67.20
2022-09-23T16:57:54.382Z,68.70
2022-09-23T17:07:55.984Z,70.00
2022-09-23T17:17:57.601Z,71.80
2022-09-23T17:28:00.088Z,73.10
2022-09-23T17:38:01.691Z,74.50
2022-09-23T17:48:03.412Z,75.60
2022-09-23T17:58:05.020Z,77.00
2022-09-23T18:08:06.624Z,78.60
2022-09-23T18:18:08.595Z,80.10
2022-09-23T18:28:10.210Z,81.00
2022-09-23T18:38:12.198Z,82.60
2022-09-23T18:48:32.607Z,83.60
2022-09-23T18:58:34.408Z,85.30
2022-09-23T19:08:37.245Z,85.40
2022-09-23T19:18:41.519Z,86.50
2022-09-23T19:28:48.936Z,87.30
2022-09-23T19:38:54.107Z,88.20
2022-09-23T19:48:55.879Z,89.00
2022-09-23T19:58:58.411Z,90.00
2022-09-23T20:09:01.210Z,90.20
2022-09-23T20:19:04.326Z,90.80
2022-09-23T20:29:06.618Z,91.10
2022-09-23T20:39:09.849Z,91.50
2022-09-23T20:49:11.478Z,91.90
2022-09-23T20:59:14.892Z,92.20
2022-09-23T21:09:16.596Z,92.40
2022-09-23T21:19:19.275Z,92.90
2022-09-23T21:29:20.925Z,93.20
2022-09-23T21:39:22.564Z,93.40
2022-09-23T21:49:24.171Z,93.60
2022-09-23T21:59:25.775Z,93.80
2022-09-23T22:09:27.421Z,93.90
2022-09-23T22:19:44.293Z,94.10
2022-09-23T22:30:06.532Z,94.30
2022-09-23T22:40:11.036Z,94.20
2022-09-23T22:50:14.291Z,94.50
2022-09-23T23:00:15.946Z,94.90
2022-09-23T23:10:17.620Z,95.10
2022-09-23T23:20:19.994Z,95.20
2022-09-23T23:30:25.399Z,95.50
2022-09-23T23:40:27.922Z,95.40
2022-09-23T23:50:29.569Z,95.60
